createdAt,value
2018-09-21T00:00:40.324Z,9.30
2018-09-21T00:03:09.933Z,8.37
2018-09-21T00:05:38.514Z,8.43
2018-09-21T00:08:06.706Z,8.20
2018-09-21T00:10:35.142Z,9.27
2018-09-21T00:13:03.458Z,9.10
2018-09-21T00:15:31.772Z,8.87
2018-09-21T00:17:59.964Z,8.93
2018-09-21T00:20:28.396Z,8.60
2018-09-21T00:22:56.599Z,8.67
2018-09-21T00:25:24.780Z,9.43
2018-09-21T00:27:52.950Z,8.57
2018-09-21T00:30:21.040Z,9.53
2018-09-21T00:32:49.158Z,8.90
2018-09-21T00:35:17.366Z,8.97
2018-09-21T00:37:45.572Z,8.63
2018-09-21T00:40:13.828Z,9.23
2018-09-21T00:42:42.165Z,8.77
2018-09-21T00:45:10.380Z,8.53
2018-09-21T00:47:38.542Z,8.77
2018-09-21T00:50:06.707Z,9.10
2018-09-21T00:52:34.842Z,8.90
2018-09-21T00:55:03.324Z,8.73
2018-09-21T00:57:31.480Z,8.67
2018-09-21T00:59:59.641Z,9.13
2018-09-21T01:02:27.828Z,8.63
2018-09-21T01:04:55.984Z,9.83
2018-09-21T01:07:24.095Z,9.17
2018-09-21T01:09:52.265Z,9.90
2018-09-21T01:12:20.407Z,10.00
2018-09-21T01:14:48.559Z,9.93
2018-09-21T01:17:16.721Z,10.23
2018-09-21T01:19:44.809Z,8.60
2018-09-21T01:22:12.980Z,8.83
2018-09-21T01:24:41.141Z,9.87
2018-09-21T01:27:13.676Z,9.57
2018-09-21T01:29:41.885Z,9.60
2018-09-21T01:32:10.180Z,9.07
2018-09-21T01:34:38.282Z,9.23
2018-09-21T01:37:06.552Z,9.67
2018-09-21T01:39:34.753Z,10.13
2018-09-21T01:42:02.913Z,10.37
2018-09-21T01:44:31.077Z,9.80
2018-09-21T01:46:59.311Z,10.33
2018-09-21T01:49:27.577Z,9.67
2018-09-21T01:51:55.979Z,9.60
2018-09-21T01:54:24.097Z,9.80
2018-09-21T01:56:52.370Z,8.93
2018-09-21T01:59:20.650Z,10.67
2018-09-21T02:01:49.169Z,10.90
2018-09-21T02:04:17.451Z,11.03
2018-09-21T02:06:45.679Z,9.53
2018-09-21T02:09:13.871Z,9.67
2018-09-21T02:11:42.101Z,11.47
2018-09-21T02:14:10.855Z,10.50
2018-09-21T02:16:39.075Z,11.30
2018-09-21T02:19:07.344Z,10.73
2018-09-21T02:21:35.589Z,10.70
2018-09-21T02:24:03.857Z,10.67
2018-09-21T02:26:31.999Z,10.63
2018-09-21T02:29:00.161Z,10.87
2018-09-21T02:31:28.263Z,11.40
2018-09-21T02:33:56.581Z,12.43
2018-09-21T02:36:24.899Z,11.47
2018-09-21T02:38:53.078Z,11.30
2018-09-21T02:41:21.288Z,11.43
2018-09-21T02:43:49.563Z,11.67
2018-09-21T02:46:17.760Z,11.60
2018-09-21T02:48:46.276Z,12.30
2018-09-21T02:51:14.395Z,12.43
2018-09-21T02:53:42.515Z,12.10
2018-09-21T02:56:10.760Z,12.50
2018-09-21T02:58:38.990Z,12.60
2018-09-21T03:01:07.281Z,12.43
2018-09-21T03:03:35.558Z,13.03
2018-09-21T03:06:03.741Z,13.03
2018-09-21T03:08:31.894Z,12.87
2018-09-21T03:11:00.137Z,12.93
2018-09-21T03:13:28.319Z,13.10
2018-09-21T03:15:56.506Z,12.33
2018-09-21T03:18:24.695Z,12.23
2018-09-21T03:20:52.847Z,12.23
2018-09-21T03:23:21.081Z,14.37
2018-09-21T03:25:49.300Z,12.50
2018-09-21T03:28:17.569Z,13.00
2018-09-21T03:30:45.797Z,14.03
2018-09-21T03:33:14.117Z,14.00
2018-09-21T03:35:42.529Z,13.53
2018-09-21T03:38:11.011Z,13.07
2018-09-21T03:40:39.294Z,13.33
2018-09-21T03:43:08.370Z,14.00
2018-09-21T03:45:36.619Z,13.77
2018-09-21T03:48:04.769Z,13.70
2018-09-21T03:50:33.246Z,14.03
2018-09-21T03:53:01.489Z,14.43
2018-09-21T03:55:29.629Z,14.53
2018-09-21T03:57:57.845Z,14.27
2018-09-21T04:00:26.111Z,14.87
2018-09-21T04:02:54.253Z,12.93
2018-09-21T04:05:22.389Z,12.77
2018-09-21T04:07:50.566Z,13.10
2018-09-21T04:10:18.772Z,12.83
2018-09-21T04:12:47.016Z,12.47
2018-09-21T04:15:15.169Z,12.17
2018-09-21T04:17:43.278Z,12.77
2018-09-21T04:20:11.708Z,13.53
2018-09-21T04:22:40.009Z,13.87
2018-09-21T04:25:09.406Z,13.17
2018-09-21T04:27:37.527Z,12.93
2018-09-21T04:30:05.708Z,12.80
2018-09-21T04:32:33.843Z,12.73
2018-09-21T04:35:02.033Z,13.03
2018-09-21T04:37:30.189Z,13.00
2018-09-21T04:39:58.334Z,12.57
2018-09-21T04:42:26.521Z,12.60
2018-09-21T04:44:54.840Z,13.60
2018-09-21T04:47:23.218Z,13.97
2018-09-21T04:49:51.537Z,13.13
2018-09-21T04:52:26.249Z,13.07
2018-09-21T04:54:54.497Z,11.70
2018-09-21T04:57:22.691Z,13.97
2018-09-21T04:59:50.824Z,12.77
2018-09-21T05:02:19.020Z,12.30
2018-09-21T05:04:47.300Z,14.00
2018-09-21T05:07:16.507Z,15.27
2018-09-21T05:09:44.710Z,14.83
2018-09-21T05:12:13.035Z,13.77
2018-09-21T05:14:41.264Z,13.03
2018-09-21T05:17:09.491Z,13.20
2018-09-21T05:19:37.661Z,14.57
2018-09-21T05:22:05.950Z,14.30
2018-09-21T05:24:34.193Z,14.17
2018-09-21T05:27:02.327Z,15.27
2018-09-21T05:29:32.177Z,15.50
2018-09-21T05:32:00.482Z,14.80
2018-09-21T05:34:28.883Z,15.30
2018-09-21T05:36:57.034Z,15.40
2018-09-21T05:39:25.255Z,14.47
2018-09-21T05:41:53.499Z,15.07
2018-09-21T05:44:21.774Z,14.13
2018-09-21T05:46:50.030Z,14.50
2018-09-21T05:49:18.311Z,13.43
2018-09-21T05:51:46.595Z,13.63
2018-09-21T05:54:14.804Z,13.37
2018-09-21T05:56:44.082Z,15.07
2018-09-21T05:59:12.276Z,13.10
2018-09-21T06:01:40.471Z,12.23
2018-09-21T06:04:08.747Z,11.23
2018-09-21T06:06:36.917Z,11.80
2018-09-21T06:09:06.812Z,12.80
2018-09-21T06:11:35.039Z,12.53
2018-09-21T06:14:03.396Z,10.90
2018-09-21T06:16:31.512Z,12.00
2018-09-21T06:18:59.713Z,11.70
2018-09-21T06:21:27.885Z,12.23
2018-09-21T06:23:56.103Z,12.03
2018-09-21T06:26:24.362Z,12.17
2018-09-21T06:28:52.930Z,14.00
2018-09-21T06:31:21.199Z,12.07
2018-09-21T06:33:49.881Z,12.90
2018-09-21T06:36:18.038Z,11.97
2018-09-21T06:38:46.270Z,13.13
2018-09-21T06:41:14.469Z,11.40
2018-09-21T06:43:42.641Z,10.00
2018-09-21T06:46:10.825Z,9.80
2018-09-21T06:48:38.963Z,10.60
2018-09-21T06:51:07.261Z,10.47
2018-09-21T06:53:35.424Z,9.10
2018-09-21T06:56:03.573Z,8.73
2018-09-21T06:58:32.845Z,8.33
2018-09-21T07:01:00.991Z,8.93
2018-09-21T07:03:29.157Z,9.20
2018-09-21T07:05:57.349Z,10.30
2018-09-21T07:08:25.671Z,9.67
2018-09-21T07:10:53.816Z,9.53
2018-09-21T07:13:21.980Z,10.10
2018-09-21T07:15:51.065Z,10.30
2018-09-21T07:18:20.181Z,9.07
2018-09-21T07:20:48.301Z,7.73
2018-09-21T07:23:16.484Z,8.07
2018-09-21T07:25:44.642Z,7.40
2018-09-21T07:28:13.260Z,7.83
2018-09-21T07:30:41.401Z,7.40
2018-09-21T07:33:09.796Z,7.60
2018-09-21T07:35:38.018Z,7.13
2018-09-21T07:38:06.916Z,7.20
2018-09-21T07:40:35.817Z,7.87
2018-09-21T07:43:04.018Z,7.07
2018-09-21T07:45:32.199Z,6.73
2018-09-21T07:48:00.494Z,6.27
2018-09-21T07:50:28.783Z,6.67
2018-09-21T07:52:57.070Z,5.70
2018-09-21T07:55:25.404Z,6.10
2018-09-21T07:57:53.972Z,6.33
2018-09-21T08:00:22.270Z,6.50
2018-09-21T08:02:50.628Z,6.70
2018-09-21T08:05:23.299Z,6.70
2018-09-21T08:07:51.722Z,6.40
2018-09-21T08:10:20.126Z,7.57
2018-09-21T08:12:48.361Z,7.07
2018-09-21T08:15:16.589Z,6.93
2018-09-21T08:17:44.732Z,6.70
2018-09-21T08:20:12.925Z,5.83
2018-09-21T08:22:41.058Z,6.20
2018-09-21T08:25:09.343Z,6.13
2018-09-21T08:27:37.491Z,6.23
2018-09-21T08:30:05.661Z,6.70
2018-09-21T08:32:33.799Z,6.67
2018-09-21T08:35:01.966Z,6.00
2018-09-21T08:37:30.108Z,6.47
2018-09-21T08:39:58.313Z,6.30
2018-09-21T08:42:26.575Z,6.60
2018-09-21T08:44:54.917Z,7.40
2018-09-21T08:47:23.231Z,6.87
2018-09-21T08:49:52.486Z,7.20
2018-09-21T08:52:20.651Z,6.87
2018-09-21T08:54:49.220Z,6.60
2018-09-21T08:57:18.236Z,6.77
2018-09-21T08:59:46.428Z,6.93
2018-09-21T09:02:15.039Z,6.73
2018-09-21T09:04:43.356Z,6.70
2018-09-21T09:07:11.640Z,7.50
2018-09-21T09:09:40.063Z,6.23
2018-09-21T09:12:08.321Z,8.00
2018-09-21T09:14:36.979Z,7.70
2018-09-21T09:17:05.298Z,6.97
2018-09-21T09:19:33.701Z,7.03
2018-09-21T09:22:02.007Z,8.17
2018-09-21T09:24:30.442Z,7.53
2018-09-21T09:26:58.695Z,8.30
2018-09-21T09:29:26.989Z,7.53
2018-09-21T09:31:55.421Z,6.40
2018-09-21T09:34:23.669Z,6.40
2018-09-21T09:36:51.870Z,6.80
2018-09-21T09:39:20.040Z,7.23
2018-09-21T09:41:48.190Z,6.47
2018-09-21T09:44:16.488Z,6.70
2018-09-21T09:46:44.661Z,6.10
2018-09-21T09:49:12.951Z,6.37
2018-09-21T09:51:41.116Z,6.53
2018-09-21T09:54:09.361Z,6.47
2018-09-21T09:56:37.578Z,6.50
2018-09-21T09:59:05.768Z,6.40
2018-09-21T10:01:33.966Z,6.90
2018-09-21T10:04:02.355Z,6.20
2018-09-21T10:06:30.446Z,5.97
2018-09-21T10:08:58.663Z,6.00
2018-09-21T10:11:27.070Z,5.37
2018-09-21T10:13:55.468Z,6.00
2018-09-21T10:16:24.385Z,5.97
2018-09-21T10:18:52.532Z,5.87
2018-09-21T10:21:20.809Z,5.70
2018-09-21T10:23:49.288Z,4.97
2018-09-21T10:26:18.008Z,5.80
2018-09-21T10:28:47.420Z,5.27
2018-09-21T10:31:15.413Z,5.77
2018-09-21T10:33:43.949Z,5.20
2018-09-21T10:36:12.085Z,5.20
2018-09-21T10:38:40.611Z,5.50
2018-09-21T10:41:08.958Z,5.70
2018-09-21T10:43:38.003Z,4.90
2018-09-21T10:46:06.333Z,5.20
2018-09-21T10:48:34.818Z,5.40
2018-09-21T10:51:03.545Z,5.40
2018-09-21T10:53:31.777Z,5.63
2018-09-21T10:56:00.157Z,4.90
2018-09-21T10:58:29.157Z,5.10
2018-09-21T11:00:57.546Z,4.70
2018-09-21T11:03:25.907Z,4.93
2018-09-21T11:05:54.303Z,5.50
2018-09-21T11:08:22.621Z,4.90
2018-09-21T11:10:51.035Z,5.47
2018-09-21T11:13:19.210Z,5.53
2018-09-21T11:15:47.666Z,4.90
2018-09-21T11:18:16.425Z,5.07
2018-09-21T11:20:44.679Z,4.90
2018-09-21T11:23:12.964Z,5.37
2018-09-21T11:25:41.214Z,5.23
2018-09-21T11:28:09.427Z,4.90
2018-09-21T11:30:37.619Z,4.87
2018-09-21T11:33:05.899Z,4.40
2018-09-21T11:35:34.110Z,5.30
2018-09-21T11:38:02.306Z,4.63
2018-09-21T11:40:30.497Z,4.57
2018-09-21T11:42:58.699Z,4.83
2018-09-21T11:45:27.089Z,5.03
2018-09-21T11:47:55.533Z,4.67
2018-09-21T11:50:23.989Z,4.77
2018-09-21T11:52:52.253Z,4.80
2018-09-21T11:55:21.633Z,4.90
2018-09-21T11:57:49.952Z,4.50
2018-09-21T12:00:18.315Z,4.40
2018-09-21T12:02:46.755Z,4.40
2018-09-21T12:05:16.311Z,4.87
2018-09-21T12:07:44.672Z,4.43
2018-09-21T12:10:13.015Z,4.50
2018-09-21T12:12:41.441Z,4.73
2018-09-21T12:15:09.672Z,4.40
2018-09-21T12:17:37.799Z,4.87
2018-09-21T12:20:06.112Z,4.73
2018-09-21T12:22:34.376Z,4.70
2018-09-21T12:25:02.923Z,4.87
2018-09-21T12:27:31.146Z,4.97
2018-09-21T12:29:59.490Z,4.43
2018-09-21T12:32:27.706Z,4.50
2018-09-21T12:34:55.948Z,4.50
2018-09-21T12:37:24.091Z,4.50
2018-09-21T12:39:52.242Z,4.80
2018-09-21T12:44:48.876Z,4.10
2018-09-21T12:47:17.305Z,4.50
2018-09-21T12:49:45.540Z,4.50
2018-09-21T12:52:13.874Z,4.50
2018-09-21T12:54:42.317Z,4.73
2018-09-21T12:57:10.556Z,4.40
2018-09-21T12:59:38.767Z,4.87
2018-09-21T13:02:07.014Z,5.30
2018-09-21T13:04:35.240Z,4.67
2018-09-21T13:07:03.382Z,4.67
2018-09-21T13:09:31.524Z,4.50
2018-09-21T13:11:59.957Z,4.50
2018-09-21T13:14:28.150Z,4.70
2018-09-21T13:16:56.477Z,4.57
2018-09-21T13:19:25.366Z,4.00
2018-09-21T13:21:53.728Z,4.27
2018-09-21T13:24:22.118Z,4.00
2018-09-21T13:26:50.628Z,4.30
2018-09-21T13:29:18.872Z,3.80
2018-09-21T13:34:22.354Z,4.00
2018-09-21T13:36:50.963Z,4.03
2018-09-21T13:39:19.296Z,4.40
2018-09-21T13:41:47.454Z,4.50
2018-09-21T13:44:15.865Z,4.40
2018-09-21T13:46:44.171Z,4.43
2018-09-21T13:49:12.379Z,4.30
2018-09-21T13:51:40.539Z,4.23
2018-09-21T13:54:08.713Z,4.70
2018-09-21T13:56:36.984Z,4.30
2018-09-21T13:59:06.077Z,3.90
2018-09-21T14:01:34.197Z,4.30
2018-09-21T14:04:02.367Z,4.27
2018-09-21T14:06:30.509Z,4.43
2018-09-21T14:08:59.389Z,4.27
2018-09-21T14:11:27.667Z,4.30
2018-09-21T14:13:56.128Z,4.33
2018-09-21T14:16:24.551Z,4.17
2018-09-21T14:18:52.952Z,4.20
2018-09-21T14:21:21.262Z,4.50
2018-09-21T14:23:49.661Z,4.40
2018-09-21T14:26:18.009Z,4.13
2018-09-21T14:28:46.172Z,4.43
2018-09-21T14:31:14.328Z,4.63
2018-09-21T14:33:42.450Z,4.40
2018-09-21T14:36:10.797Z,4.20
2018-09-21T14:38:38.989Z,4.20
2018-09-21T14:41:07.240Z,4.67
2018-09-21T14:43:35.433Z,4.33
2018-09-21T14:46:03.573Z,4.00
2018-09-21T14:48:32.033Z,4.03
2018-09-21T14:51:00.200Z,4.00
2018-09-21T14:53:28.362Z,3.70
2018-09-21T14:55:56.966Z,4.60
2018-09-21T14:58:25.165Z,3.97
2018-09-21T15:00:53.472Z,3.87
2018-09-21T15:03:21.579Z,4.40
2018-09-21T15:05:49.808Z,4.17
2018-09-21T15:08:18.031Z,4.00
2018-09-21T15:10:46.381Z,4.73
2018-09-21T15:13:14.591Z,3.80
2018-09-21T15:15:42.834Z,4.63
2018-09-21T15:18:11.100Z,3.97
2018-09-21T15:20:39.372Z,5.03
2018-09-21T15:23:07.814Z,4.00
2018-09-21T15:25:35.989Z,3.83
2018-09-21T15:28:04.800Z,4.27
2018-09-21T15:30:33.021Z,3.63
2018-09-21T15:33:01.227Z,4.27
2018-09-21T15:35:29.597Z,4.23
2018-09-21T15:37:57.934Z,4.30
2018-09-21T15:40:26.227Z,3.57
2018-09-21T15:42:54.918Z,3.80
2018-09-21T15:45:23.330Z,3.87
2018-09-21T15:47:51.685Z,4.00
2018-09-21T15:50:19.985Z,3.97
2018-09-21T15:52:48.571Z,4.40
2018-09-21T15:55:16.840Z,4.67
2018-09-21T15:57:45.029Z,5.03
2018-09-21T16:00:13.321Z,5.00
2018-09-21T16:02:41.856Z,5.00
2018-09-21T16:05:10.249Z,5.27
2018-09-21T16:07:38.567Z,5.03
2018-09-21T16:10:07.008Z,4.80
2018-09-21T16:12:35.281Z,4.90
2018-09-21T16:15:03.659Z,4.90
2018-09-21T16:17:32.724Z,4.80
2018-09-21T16:20:01.175Z,5.27
2018-09-21T16:22:29.706Z,5.50
2018-09-21T16:24:58.167Z,5.00
2018-09-21T16:27:26.535Z,5.27
2018-09-21T16:29:55.683Z,5.73
2018-09-21T16:32:23.921Z,5.37
2018-09-21T16:34:52.223Z,5.63
2018-09-21T16:37:20.403Z,5.27
2018-09-21T16:39:49.031Z,5.73
2018-09-21T16:42:17.349Z,5.53
2018-09-21T16:44:45.677Z,5.33
2018-09-21T16:47:13.956Z,5.77
2018-09-21T16:49:42.493Z,5.57
2018-09-21T16:52:11.167Z,5.67
2018-09-21T16:54:40.370Z,5.50
2018-09-21T16:57:08.753Z,5.70
2018-09-21T16:59:37.075Z,5.50
2018-09-21T17:02:05.219Z,5.90
2018-09-21T17:04:33.532Z,6.07
2018-09-21T17:07:01.889Z,5.97
2018-09-21T17:09:30.113Z,5.70
2018-09-21T17:11:58.375Z,6.30
2018-09-21T17:14:26.833Z,7.30
2018-09-21T17:16:55.456Z,5.83
2018-09-21T17:19:24.008Z,5.50
2018-09-21T17:21:52.331Z,6.20
2018-09-21T17:24:20.731Z,6.03
2018-09-21T17:26:49.213Z,6.77
2018-09-21T17:29:17.605Z,6.17
2018-09-21T17:31:46.076Z,6.60
2018-09-21T17:34:14.265Z,6.70
2018-09-21T17:36:42.523Z,5.93
2018-09-21T17:39:12.364Z,6.07
2018-09-21T17:41:40.837Z,5.97
2018-09-21T17:44:09.288Z,5.73
2018-09-21T17:46:37.657Z,6.80
2018-09-21T17:49:06.374Z,6.00
2018-09-21T17:51:34.759Z,6.47
2018-09-21T17:54:03.373Z,5.93
2018-09-21T17:56:32.590Z,6.90
2018-09-21T17:59:00.871Z,5.20
2018-09-21T18:01:29.225Z,4.13
2018-09-21T18:03:57.471Z,3.47
2018-09-21T18:06:25.882Z,3.60
2018-09-21T18:08:55.519Z,3.50
2018-09-21T18:11:23.810Z,3.80
2018-09-21T18:13:52.060Z,3.40
2018-09-21T18:16:21.198Z,3.50
2018-09-21T18:18:49.511Z,3.17
2018-09-21T18:21:18.055Z,2.80
2018-09-21T18:23:46.390Z,1.80
2018-09-21T18:26:14.737Z,1.47
2018-09-21T18:28:43.039Z,1.30
2018-09-21T18:31:12.143Z,1.20
2018-09-21T18:33:40.422Z,1.43
2018-09-21T18:36:08.878Z,1.23
2018-09-21T18:38:38.103Z,0.90
2018-09-21T18:41:06.548Z,1.10
2018-09-21T18:43:35.031Z,0.90
2018-09-21T18:46:03.353Z,0.90
2018-09-21T18:48:31.581Z,1.40
2018-09-21T18:50:59.806Z,1.20
2018-09-21T18:53:27.979Z,1.20
2018-09-21T18:55:56.160Z,1.10
2018-09-21T18:58:24.518Z,0.93
2018-09-21T19:00:52.778Z,1.20
2018-09-21T19:03:21.342Z,1.10
2018-09-21T19:05:49.687Z,0.90
2018-09-21T19:08:17.963Z,0.93
2018-09-21T19:10:46.208Z,1.50
2018-09-21T19:13:14.417Z,1.20
2018-09-21T19:15:42.738Z,1.00
2018-09-21T19:18:11.124Z,1.10
2018-09-21T19:20:39.523Z,1.07
2018-09-21T19:23:07.937Z,1.00
2018-09-21T19:25:36.267Z,1.10
2018-09-21T19:28:04.593Z,1.00
2018-09-21T19:30:32.868Z,1.10
2018-09-21T19:33:01.152Z,1.20
2018-09-21T19:35:29.454Z,1.10
2018-09-21T19:37:57.831Z,1.20
2018-09-21T19:40:26.168Z,1.13
2018-09-21T19:42:54.655Z,1.47
2018-09-21T19:45:22.989Z,1.30
2018-09-21T19:47:51.145Z,1.37
2018-09-21T19:50:19.477Z,1.10
2018-09-21T19:52:48.076Z,1.63
2018-09-21T19:55:16.462Z,1.20
2018-09-21T19:57:44.825Z,1.30
2018-09-21T20:00:13.192Z,1.17
2018-09-21T20:02:41.550Z,1.20
2018-09-21T20:05:10.439Z,1.40
2018-09-21T20:07:38.817Z,1.30
2018-09-21T20:10:07.195Z,1.30
2018-09-21T20:12:35.459Z,1.20
2018-09-21T20:15:03.832Z,1.20
2018-09-21T20:17:32.073Z,1.30
2018-09-21T20:20:00.274Z,1.00
2018-09-21T20:22:28.549Z,1.20
2018-09-21T20:24:56.782Z,1.40
2018-09-21T20:27:24.973Z,1.47
2018-09-21T20:29:57.441Z,1.20
2018-09-21T20:32:31.133Z,1.20
2018-09-21T20:34:59.763Z,1.00
2018-09-21T20:37:28.245Z,1.23
2018-09-21T20:39:56.512Z,1.27
2018-09-21T20:42:24.747Z,1.07
2018-09-21T20:44:53.009Z,1.30
2018-09-21T20:47:21.129Z,1.07
2018-09-21T20:49:49.359Z,1.40
2018-09-21T20:52:17.517Z,1.23
2018-09-21T20:54:45.846Z,1.40
2018-09-21T20:57:14.068Z,1.40
2018-09-21T20:59:42.242Z,1.40
2018-09-21T21:02:10.447Z,1.50
2018-09-21T21:04:38.823Z,1.27
2018-09-21T21:07:07.030Z,1.43
2018-09-21T21:09:35.319Z,1.60
2018-09-21T21:12:03.932Z,1.60
2018-09-21T21:14:32.455Z,1.67
2018-09-21T21:17:00.860Z,1.37
2018-09-21T21:19:29.311Z,1.80
2018-09-21T21:21:57.753Z,1.77
2018-09-21T21:24:26.016Z,1.40
2018-09-21T21:26:54.364Z,1.10
2018-09-21T21:29:22.671Z,1.70
2018-09-21T21:31:50.961Z,1.80
2018-09-21T21:34:19.222Z,1.60
2018-09-21T21:36:47.541Z,1.60
2018-09-21T21:39:15.737Z,2.10
2018-09-21T21:41:43.901Z,1.77
2018-09-21T21:44:12.101Z,2.10
2018-09-21T21:46:40.297Z,1.77
2018-09-21T21:49:08.472Z,2.30
2018-09-21T21:51:36.760Z,2.80
2018-09-21T21:54:05.516Z,2.67
2018-09-21T21:56:33.820Z,2.70
2018-09-21T21:59:02.021Z,2.33
2018-09-21T22:01:35.584Z,3.07
2018-09-21T22:04:03.900Z,2.33
2018-09-21T22:06:32.049Z,2.43
2018-09-21T22:09:00.233Z,3.07
2018-09-21T22:11:33.919Z,2.17
2018-09-21T22:14:06.122Z,2.70
2018-09-21T22:16:35.412Z,2.73
2018-09-21T22:19:03.907Z,2.60
2018-09-21T22:21:32.763Z,2.40
2018-09-21T22:24:01.336Z,2.77
2018-09-21T22:26:29.650Z,2.83
2018-09-21T22:28:58.381Z,2.57
2018-09-21T22:31:26.681Z,2.37
2018-09-21T22:33:55.414Z,2.73
2018-09-21T22:36:23.740Z,2.43
2018-09-21T22:38:52.242Z,2.47
2018-09-21T22:41:20.534Z,2.50
2018-09-21T22:43:49.374Z,2.63
2018-09-21T22:46:18.068Z,2.77
2018-09-21T22:48:47.056Z,2.10
2018-09-21T22:51:16.316Z,2.57
2018-09-21T22:53:44.729Z,2.20
2018-09-21T22:56:13.011Z,2.37
2018-09-21T22:58:41.367Z,2.30
2018-09-21T23:01:10.138Z,2.10
2018-09-21T23:03:38.406Z,2.20
2018-09-21T23:06:07.020Z,2.87
2018-09-21T23:08:35.335Z,2.10
2018-09-21T23:11:03.580Z,1.90
2018-09-21T23:13:31.814Z,1.70
2018-09-21T23:15:59.928Z,1.97
2018-09-21T23:18:28.101Z,2.73
2018-09-21T23:20:56.237Z,2.07
2018-09-21T23:23:24.552Z,2.47
2018-09-21T23:25:52.906Z,1.90
2018-09-21T23:28:21.277Z,2.00
2018-09-21T23:30:49.724Z,2.03
2018-09-21T23:33:17.966Z,1.97
2018-09-21T23:35:46.350Z,1.87
2018-09-21T23:38:14.565Z,1.83
2018-09-21T23:40:42.727Z,1.80
2018-09-21T23:43:10.866Z,2.23
2018-09-21T23:45:39.066Z,2.00
2018-09-21T23:48:07.180Z,1.97
2018-09-21T23:50:35.314Z,2.40
2018-09-21T23:53:03.489Z,1.80
2018-09-21T23:55:31.806Z,1.80
2018-09-21T23:58:00.032Z,2.10
